Time;durP1;ratioP1;P1;durP2;ratioP2;P2;SDS_P1;SDS_P2;PMS_P1;PMS_P2;Temp;Humidity;BMP_temperature;BMP_pressure;BME280_temperature;BME280_humidity;BME280_pressure;Samples;Min_cycle;Max_cycle;Signal;HPM_P1;HPM_P2
2021/08/07 05:30:08;;;;;;;3.72;1.30;;;16.40;99.90;;;17.62;87.28;99361.03;6241615;22;20072;-91
2021/08/07 05:32:34;;;;;;;2.85;1.10;;;16.50;99.90;;;17.61;87.37;99367.09;6281853;22;20010;-88
2021/08/07 05:35:01;;;;;;;3.67;1.20;;;16.50;99.90;;;17.80;86.55;99367.06;6282321;22;20035;-89
2021/08/07 05:37:27;;;;;;;2.30;1.05;;;16.60;99.90;;;17.81;86.37;99365.84;6282204;22;20008;-88
2021/08/07 05:39:55;;;;;;;2.58;1.27;;;16.60;99.90;;;17.89;86.72;99358.00;6283874;22;20014;-88
2021/08/07 05:42:20;;;;;;;5.03;1.40;;;16.60;99.90;;;17.90;85.68;99363.22;6284979;22;20004;-88
2021/08/07 05:44:46;;;;;;;2.78;1.45;;;16.70;99.90;;;18.04;85.09;99364.13;6282979;22;20457;-90
2021/08/07 05:47:12;;;;;;;4.68;1.65;;;16.70;99.90;;;18.20;84.55;99353.63;6284098;22;20007;-89
2021/08/07 05:49:39;;;;;;;2.80;1.00;;;16.80;99.90;;;18.23;84.49;99354.78;6293343;22;20018;-87
2021/08/07 05:52:05;;;;;;;3.03;0.90;;;16.80;99.90;;;18.29;84.49;99353.81;6299774;22;20007;-88
2021/08/07 05:54:41;;;;;;;3.08;1.10;;;16.80;99.90;;;18.27;84.81;99361.91;6300558;22;20034;-86
2021/08/07 05:57:07;;;;;;;3.75;1.17;;;16.90;99.90;;;18.25;84.61;99357.94;6299602;22;20000;-90
2021/08/07 05:59:33;;;;;;;1.90;1.17;;;16.90;99.90;;;18.34;84.55;99356.09;6315868;22;20501;-88
2021/08/07 06:02:03;;;;;;;2.65;1.30;;;16.90;99.90;;;18.37;84.50;99351.59;6279487;22;20004;-89
2021/08/07 06:04:30;;;;;;;3.97;1.20;;;16.90;99.90;;;18.33;84.00;99348.84;6278842;22;20002;-88
2021/08/07 06:06:57;;;;;;;3.60;1.35;;;17.00;99.90;;;18.38;84.20;99347.53;6279004;22;20031;-88
2021/08/07 06:09:24;;;;;;;2.35;1.15;;;17.00;99.90;;;18.49;83.36;99347.28;6280504;22;20004;-90
2021/08/07 06:11:51;;;;;;;2.97;1.05;;;17.10;99.90;;;18.48;83.47;99352.13;6278499;22;20011;-89
2021/08/07 06:14:18;;;;;;;2.92;1.23;;;17.10;99.90;;;18.34;84.05;99344.78;6278029;22;20004;-88
2021/08/07 06:16:45;;;;;;;3.17;1.70;;;17.10;99.90;;;18.42;84.12;99340.56;6277556;22;20450;-88
2021/08/07 06:19:13;;;;;;;3.70;1.30;;;17.20;99.90;;;18.38;83.45;99341.88;6279575;22;20445;-88
2021/08/07 06:21:39;;;;;;;2.53;1.00;;;17.10;99.90;;;18.43;83.93;99332.84;6278928;22;20122;-90
2021/08/07 06:24:06;;;;;;;3.83;1.00;;;17.20;99.90;;;18.48;83.79;99334.38;6279902;22;20000;-87
2021/08/07 06:26:32;;;;;;;3.00;0.90;;;17.20;99.90;;;18.66;82.48;99331.88;6277664;22;20018;-88
2021/08/07 06:29:03;;;;;;;5.15;1.45;;;17.20;99.90;;;18.74;83.07;99344.63;6278343;22;20376;-87
2021/08/07 06:31:29;;;;;;;3.00;1.13;;;17.30;99.90;;;18.85;82.16;99345.09;6282544;22;20441;-88
2021/08/07 06:33:55;;;;;;;2.33;1.00;;;17.40;99.90;;;19.02;81.05;99348.69;6279166;22;20008;-88
2021/08/07 06:36:25;;;;;;;2.47;0.80;;;17.50;99.90;;;19.07;81.63;99345.34;6280739;22;20018;-88
2021/08/07 06:38:52;;;;;;;3.10;1.05;;;17.70;99.90;;;19.41;80.16;99349.22;6279031;22;20036;-87
2021/08/07 06:41:19;;;;;;;4.57;1.15;;;17.90;99.90;;;19.88;78.17;99357.88;6286184;22;20003;-87
2021/08/07 06:43:46;;;;;;;3.13;1.17;;;18.20;99.90;;;20.46;75.51;99352.00;6290973;22;20007;-87
2021/08/07 06:46:14;;;;;;;2.45;1.00;;;18.80;99.90;;;20.94;73.94;99362.06;6290922;22;20007;-87
2021/08/07 06:48:41;;;;;;;2.08;0.82;;;19.30;99.90;;;21.25;72.68;99356.53;6285333;22;20065;-85
2021/08/07 06:51:07;;;;;;;3.03;1.17;;;19.60;99.90;;;21.24;71.41;99364.25;6286753;22;20025;-86
2021/08/07 06:53:34;;;;;;;4.70;1.13;;;19.80;99.90;;;21.21;71.63;99358.72;6289560;22;20011;-87
2021/08/07 06:56:03;;;;;;;1.95;1.00;;;19.70;99.90;;;21.21;71.68;99364.38;6289030;22;20032;-87
2021/08/07 06:58:29;;;;;;;4.00;1.48;;;19.60;99.90;;;20.63;74.61;99363.97;6315309;22;20061;-87
2021/08/07 07:00:58;;;;;;;3.47;1.08;;;19.40;99.90;;;20.38;73.97;99364.84;6286388;22;20007;-87
2021/08/07 07:03:26;;;;;;;2.45;0.90;;;19.20;99.90;;;20.50;74.80;99369.69;6289496;22;20030;-87
2021/08/07 07:05:52;;;;;;;2.05;1.13;;;19.00;99.90;;;20.21;75.53;99366.97;6291395;22;20012;-88
2021/08/07 07:08:19;;;;;;;3.30;1.00;;;18.90;99.90;;;19.64;77.40;99365.13;6328146;22;20059;-87
2021/08/07 07:10:51;;;;;;;3.10;0.95;;;18.70;99.90;;;19.98;77.08;99364.47;6318985;22;20027;-87
2021/08/07 07:13:21;;;;;;;2.65;0.90;;;18.60;99.90;;;19.86;76.88;99359.59;6287688;22;20023;-87
2021/08/07 07:15:47;;;;;;;2.97;1.00;;;18.60;99.90;;;20.02;76.62;99359.47;6315703;22;20010;-89
2021/08/07 07:18:16;;;;;;;1.98;1.00;;;18.60;99.90;;;19.84;77.03;99356.41;6287268;22;20007;-88
2021/08/07 07:20:45;;;;;;;3.92;1.00;;;18.60;99.90;;;19.86;77.62;99351.88;6287289;22;20062;-89
2021/08/07 07:23:14;;;;;;;2.97;1.10;;;18.70;99.90;;;19.78;77.70;99344.03;6313083;22;20007;-87
2021/08/07 07:25:41;;;;;;;3.58;1.20;;;18.60;99.90;;;19.99;75.99;99347.03;6314356;22;20004;-88
2021/08/07 07:28:08;;;;;;;5.45;1.15;;;18.70;99.90;;;20.04;76.79;99364.69;6287987;22;20011;-86
2021/08/07 07:30:36;;;;;;;3.25;1.17;;;18.70;99.90;;;19.94;77.07;99367.41;6314180;22;20032;-88
2021/08/07 07:33:03;;;;;;;2.85;1.30;;;18.70;99.90;;;20.04;77.20;99367.50;6289018;22;20061;-89
2021/08/07 07:35:52;;;;;;;3.58;1.33;;;18.80;99.90;;;20.18;76.36;99373.53;6287859;22;20050;-90
2021/08/07 07:38:25;;;;;;;5.38;1.35;;;18.80;99.90;;;20.16;75.92;99375.25;6313968;22;20016;-86
2021/08/07 07:40:54;;;;;;;2.72;1.23;;;18.80;99.90;;;20.10;76.59;99362.91;6317639;22;20011;-88
2021/08/07 07:43:21;;;;;;;4.25;1.48;;;18.90;99.90;;;20.38;75.42;99368.47;6316602;22;20095;-89
2021/08/07 07:45:51;;;;;;;2.28;0.98;;;19.10;99.90;;;20.74;75.30;99372.94;6288959;22;20008;-88
2021/08/07 07:48:19;;;;;;;3.17;1.17;;;19.30;99.90;;;20.66;75.17;99374.41;6290848;22;20015;-87
2021/08/07 07:50:46;;;;;;;2.42;1.10;;;19.30;99.90;;;20.34;77.34;99367.78;6288858;22;20022;-87
2021/08/07 07:53:15;;;;;;;3.85;1.10;;;19.10;99.90;;;20.13;78.10;99371.25;6282446;22;20067;-87
2021/08/07 07:55:44;;;;;;;3.25;1.27;;;19.00;99.90;;;19.83;79.61;99377.50;6278193;22;20344;-86
2021/08/07 07:58:15;;;;;;;3.70;1.00;;;18.70;99.90;;;19.69;81.31;99387.22;6305285;22;20008;-90
2021/08/07 08:00:41;;;;;;;4.53;1.55;;;18.50;99.90;;;19.21;84.63;99373.22;6279123;22;20008;-86
2021/08/07 08:03:09;;;;;;;5.68;1.50;;;18.20;99.90;;;18.71;88.18;99365.31;6280256;22;20004;-88
2021/08/07 08:05:42;;;;;;;4.10;1.88;;;17.90;99.90;;;18.50;90.42;99379.97;6278773;22;20007;-89
2021/08/07 08:08:18;;;;;;;3.22;1.38;;;17.60;99.90;;;18.69;91.05;99373.41;6278874;22;20341;-85
2021/08/07 08:10:52;;;;;;;8.20;1.73;;;17.40;99.90;;;18.49;91.80;99367.84;6278180;22;20007;-87
2021/08/07 08:13:23;;;;;;;4.47;1.95;;;17.40;99.90;;;18.80;89.51;99365.47;6278069;22;20030;-86
2021/08/07 08:15:55;;;;;;;4.80;1.55;;;17.50;99.90;;;19.30;90.44;99374.16;6278703;22;20003;-86
2021/08/07 08:18:22;;;;;;;4.38;1.55;;;17.90;99.90;;;20.13;87.80;99379.75;6279168;22;20154;-87
2021/08/07 08:20:51;;;;;;;5.57;1.50;;;18.50;99.90;;;21.22;83.66;99368.81;6303824;22;20065;-87
2021/08/07 08:23:20;;;;;;;3.38;1.48;;;19.20;99.90;;;22.13;78.25;99373.03;6277347;22;20039;-87
2021/08/07 08:25:46;;;;;;;4.65;1.20;;;20.00;99.90;;;21.98;80.50;99367.13;6278082;22;20007;-86
2021/08/07 08:28:28;;;;;;;4.00;1.38;;;20.30;99.90;;;22.80;76.23;99355.22;6277443;22;20149;-87
2021/08/07 08:30:55;;;;;;;4.20;1.20;;;20.90;99.90;;;23.15;72.08;99362.22;6278433;22;20057;-86
2021/08/07 08:33:22;;;;;;;3.97;1.20;;;21.30;99.90;;;23.80;72.98;99361.69;6278382;22;20004;-86
2021/08/07 08:35:55;;;;;;;4.22;1.48;;;21.80;99.90;;;23.67;70.08;99354.59;6278501;22;20007;-87
2021/08/07 08:38:21;;;;;;;3.78;1.30;;;22.00;99.90;;;23.40;72.27;99355.44;6277235;22;20314;-86
2021/08/07 08:41:00;;;;;;;5.78;1.95;;;21.80;99.90;;;22.66;72.40;99350.16;6279085;22;20015;-87
2021/08/07 08:43:30;;;;;;;4.40;2.38;;;21.30;99.90;;;22.21;71.53;99347.97;6277558;22;20072;-88
2021/08/07 08:45:56;;;;;;;5.28;2.08;;;21.00;99.90;;;21.73;76.67;99343.75;6279050;22;20008;-87
2021/08/07 08:48:30;;;;;;;7.05;2.10;;;20.50;99.90;;;21.39;77.82;99347.47;6278161;22;20015;-88
2021/08/07 08:50:59;;;;;;;4.82;1.83;;;20.30;99.90;;;21.85;74.46;99332.28;6278416;22;19999;-87
2021/08/07 08:53:29;;;;;;;5.05;2.00;;;20.30;99.90;;;21.87;73.68;99331.81;6280648;22;20018;-87
2021/08/07 08:55:55;;;;;;;1.90;1.60;;;20.30;99.90;;;22.10;73.50;99317.09;6280997;22;20098;-88
2021/08/07 08:58:33;;;;;;;5.70;1.80;;;20.40;99.90;;;22.17;73.68;99316.81;6282781;22;20030;-86
2021/08/07 09:00:59;;;;;;;4.15;1.58;;;20.60;99.90;;;22.58;72.07;99316.28;6280494;22;20003;-87
2021/08/07 09:03:28;;;;;;;1.92;1.33;;;20.80;99.90;;;22.95;70.59;99313.50;6280186;22;20003;-87
2021/08/07 09:05:56;;;;;;;3.58;1.23;;;21.00;99.90;;;23.40;70.38;99315.56;6280523;22;20039;-86
2021/08/07 09:08:27;;;;;;;3.35;1.15;;;21.40;99.90;;;24.17;66.43;99313.91;6278983;22;20045;-88
2021/08/07 09:11:22;;;;;;;4.80;1.35;;;22.00;99.90;;;24.49;63.45;99315.94;6279477;22;20007;-87
2021/08/07 09:14:23;;;;;;;5.13;1.40;;;22.50;99.90;;;25.21;61.44;99321.59;6279794;22;20023;-87
2021/08/07 09:17:08;;;;;;;7.63;1.63;;;23.00;99.90;;;25.09;62.29;99317.75;6305004;22;20254;-87
2021/08/07 09:19:43;;;;;;;5.22;1.40;;;23.50;99.90;;;24.96;58.81;99302.94;6280685;22;20007;-89
2021/08/07 09:22:19;;;;;;;1.52;1.13;;;23.30;99.90;;;24.14;60.13;99303.47;6281551;22;20433;-88
2021/08/07 09:25:16;;;;;;;5.30;1.25;;;22.80;99.90;;;23.49;62.36;99298.44;6293887;22;20050;-87
2021/08/07 09:27:49;;;;;;;2.50;0.90;;;22.50;99.90;;;23.50;63.47;99300.78;6290234;22;20011;-89
2021/08/07 09:30:27;;;;;;;5.28;1.10;;;22.20;99.90;;;23.76;61.04;99298.34;6279067;22;20034;-87
2021/08/07 09:33:00;;;;;;;3.47;1.15;;;22.20;99.90;;;23.95;61.84;99291.28;6279754;22;20008;-89
2021/08/07 09:35:38;;;;;;;5.43;1.50;;;22.30;99.90;;;23.57;62.79;99288.25;6280718;22;20003;-88
2021/08/07 09:38:12;;;;;;;2.15;1.10;;;22.20;99.90;;;23.63;62.66;99291.28;6279856;22;20008;-88
2021/08/07 09:40:57;;;;;;;4.80;1.67;;;22.10;99.90;;;23.36;63.71;99295.75;6281365;22;20024;-87
2021/08/07 09:43:37;;;;;;;2.80;1.13;;;21.90;99.90;;;23.80;64.08;99295.31;6282869;22;20333;-88
2021/08/07 09:46:20;;;;;;;4.22;0.88;;;22.00;99.90;;;24.30;63.35;99288.00;6283551;22;20000;-85
2021/08/07 09:48:53;;;;;;;3.38;1.33;;;22.30;99.90;;;24.41;62.41;99289.03;6283423;22;19999;-87
2021/08/07 09:51:35;;;;;;;4.28;1.48;;;22.70;99.90;;;23.87;59.32;99283.56;6285318;22;20004;-88
2021/08/07 09:54:16;;;;;;;6.60;1.48;;;22.60;99.90;;;23.70;60.16;99288.88;6287640;22;20007;-86
2021/08/07 09:56:57;;;;;;;4.63;1.13;;;22.40;99.90;;;23.86;58.31;99284.84;6286112;22;20034;-86
2021/08/07 09:59:31;;;;;;;3.10;1.33;;;22.40;99.90;;;23.72;59.01;99285.53;6313736;22;20010;-86
2021/08/07 10:02:00;;;;;;;4.65;1.50;;;22.30;99.90;;;23.92;60.65;99292.25;6287659;22;20003;-89
2021/08/07 10:04:41;;;;;;;3.72;1.27;;;22.60;99.90;;;23.63;58.17;99288.44;6287996;22;20042;-88
2021/08/07 10:07:09;;;;;;;2.88;0.98;;;22.40;99.90;;;23.14;60.43;99291.50;6288016;22;20497;-88
2021/08/07 10:09:37;;;;;;;4.18;1.23;;;22.00;99.90;;;22.42;61.44;99287.31;6289596;22;20015;-88
2021/08/07 10:12:09;;;;;;;3.47;1.00;;;21.60;99.90;;;22.18;63.05;99289.19;6310896;22;20007;-89
2021/08/07 10:14:38;;;;;;;6.03;1.00;;;21.20;99.90;;;21.86;63.09;99284.78;6281467;22;20008;-87
2021/08/07 10:17:08;;;;;;;4.35;0.93;;;20.90;99.90;;;21.63;65.42;99296.66;6282931;22;20010;-86
2021/08/07 10:19:37;;;;;;;3.53;1.15;;;20.60;99.90;;;21.72;65.79;99288.19;6282188;22;20007;-86
2021/08/07 10:22:07;;;;;;;5.75;1.48;;;20.50;99.90;;;21.67;66.77;99291.63;6282153;22;20023;-89
2021/08/07 10:24:37;;;;;;;3.63;1.20;;;20.40;99.90;;;21.55;66.61;99293.28;6282427;22;20057;-88
2021/08/07 10:27:06;;;;;;;3.63;1.10;;;20.30;99.90;;;21.19;67.09;99295.94;6283330;22;20008;-87
2021/08/07 10:29:45;;;;;;;4.18;1.13;;;20.10;99.90;;;20.92;68.39;99294.44;6283528;22;20031;-88
2021/08/07 10:32:15;;;;;;;2.22;1.08;;;20.00;99.90;;;20.81;72.14;99301.72;6285465;22;20011;-87
2021/08/07 10:34:50;;;;;;;3.70;1.20;;;19.80;99.90;;;20.69;73.37;99294.06;6261295;22;20035;-87
2021/08/07 10:37:17;;;;;;;3.88;1.08;;;19.60;99.90;;;20.91;76.47;99287.16;6279920;22;20504;-88
2021/08/07 10:39:44;;;;;;;3.65;1.15;;;19.50;99.90;;;21.10;73.49;99273.94;6280422;22;20008;-86
2021/08/07 10:42:16;;;;;;;4.68;1.25;;;19.60;99.90;;;21.43;74.35;99257.25;6306431;22;20004;-87
2021/08/07 10:44:46;;;;;;;4.47;1.10;;;19.80;99.90;;;21.92;75.76;99255.31;6280989;22;20004;-88
2021/08/07 10:47:13;;;;;;;6.43;1.40;;;20.10;99.90;;;22.39;70.15;99260.63;6281177;22;20012;-87
2021/08/07 10:49:47;;;;;;;4.60;1.40;;;20.60;99.90;;;23.62;70.84;99259.13;6279880;22;20015;-88
2021/08/07 10:52:27;;;;;;;3.30;1.20;;;21.50;99.90;;;24.78;66.88;99255.31;6285961;22;20014;-85
2021/08/07 10:54:55;;;;;;;3.42;1.20;;;22.40;99.90;;;25.29;63.42;99245.66;6286596;22;20004;-87
2021/08/07 10:57:44;;;;;;;6.65;1.27;;;23.10;99.90;;;25.40;59.51;99245.84;6285078;22;20102;-86
2021/08/07 11:00:16;;;;;;;1.55;0.77;;;23.30;99.90;;;25.52;60.03;99244.81;6284072;22;20418;-86
2021/08/07 11:02:45;;;;;;;5.93;1.00;;;23.40;99.90;;;25.59;58.30;99224.38;6283006;22;20489;-88
2021/08/07 11:05:13;;;;;;;2.55;0.98;;;23.50;99.90;;;25.21;57.70;99215.88;6282617;22;20038;-86
2021/08/07 11:07:40;;;;;;;3.08;0.93;;;23.30;99.90;;;25.20;58.89;99220.84;6281746;22;20007;-87
2021/08/07 11:10:16;;;;;;;4.40;1.17;;;23.20;99.90;;;25.08;59.28;99219.81;6280699;22;20003;-86
2021/08/07 11:12:45;;;;;;;3.10;1.10;;;23.10;99.90;;;25.05;58.85;99223.66;6281386;22;20379;-89
2021/08/07 11:15:30;;;;;;;3.97;1.35;;;23.00;99.90;;;25.27;57.66;99223.28;6306075;22;20007;-87
2021/08/07 11:17:57;;;;;;;1.65;0.73;;;23.20;99.90;;;26.06;54.54;99218.34;6280148;22;20012;-87
2021/08/07 11:20:42;;;;;;;2.53;1.00;;;23.70;99.90;;;26.05;51.51;99215.97;6281829;22;20006;-88
2021/08/07 11:23:12;;;;;;;3.47;0.95;;;24.00;99.90;;;26.58;52.68;99216.47;6283320;22;20449;-88
2021/08/07 11:25:56;;;;;;;2.83;1.02;;;24.20;99.90;;;26.52;53.64;99209.88;6282243;22;20011;-88
2021/08/07 11:28:23;;;;;;;4.57;1.00;;;24.20;99.90;;;26.22;54.22;99213.38;6281421;22;20042;-89
2021/08/07 14:14:26;;;;;;;2.05;0.77;;;23.70;90.50;;;25.54;44.71;99134.38;6247971;22;20020;-90
2021/08/07 19:29:19;;;;;;;5.88;0.90;;;19.60;99.90;;;20.52;63.39;99121.22;6227057;22;20043;-91
